sensor_id;sensor_type;location;lat;lon;timestamp;P1;durP1;ratioP1;P2;durP2;ratioP2
16037;SDS011;8123;50.906;6.172;2023-05-07T00:00:33;12.57;;;6.40;;
16037;SDS011;8123;50.906;6.172;2023-05-07T00:02:59;12.40;;;6.60;;
16037;SDS011;8123;50.906;6.172;2023-05-07T00:05:25;8.17;;;7.13;;
16037;SDS011;8123;50.906;6.172;2023-05-07T00:07:52;11.80;;;7.47;;
16037;SDS011;8123;50.906;6.172;2023-05-07T00:10:18;12.63;;;7.40;;
16037;SDS011;8123;50.906;6.172;2023-05-07T00:12:44;16.33;;;7.50;;
16037;SDS011;8123;50.906;6.172;2023-05-07T00:15:10;10.90;;;7.93;;
16037;SDS011;8123;50.906;6.172;2023-05-07T00:17:36;11.70;;;7.80;;
16037;SDS011;8123;50.906;6.172;2023-05-07T00:20:02;14.47;;;7.87;;
16037;SDS011;8123;50.906;6.172;2023-05-07T00:22:29;14.63;;;7.70;;
16037;SDS011;8123;50.906;6.172;2023-05-07T00:24:55;14.20;;;7.67;;
16037;SDS011;8123;50.906;6.172;2023-05-07T00:27:21;8.80;;;7.30;;
16037;SDS011;8123;50.906;6.172;2023-05-07T00:29:47;11.60;;;7.80;;
16037;SDS011;8123;50.906;6.172;2023-05-07T00:32:13;10.73;;;7.77;;
16037;SDS011;8123;50.906;6.172;2023-05-07T00:34:38;9.47;;;7.43;;
16037;SDS011;8123;50.906;6.172;2023-05-07T00:37:06;13.93;;;7.60;;
16037;SDS011;8123;50.906;6.172;2023-05-07T00:39:35;13.33;;;8.20;;
16037;SDS011;8123;50.906;6.172;2023-05-07T00:42:00;12.53;;;7.27;;
16037;SDS011;8123;50.906;6.172;2023-05-07T00:44:27;11.40;;;8.53;;
16037;SDS011;8123;50.906;6.172;2023-05-07T00:46:54;24.20;;;9.00;;
16037;SDS011;8123;50.906;6.172;2023-05-07T00:49:22;10.00;;;7.90;;
16037;SDS011;8123;50.906;6.172;2023-05-07T00:51:56;18.63;;;9.00;;
16037;SDS011;8123;50.906;6.172;2023-05-07T00:54:23;9.07;;;7.87;;
16037;SDS011;8123;50.906;6.172;2023-05-07T00:56:49;12.77;;;8.60;;
16037;SDS011;8123;50.906;6.172;2023-05-07T00:59:15;16.00;;;9.30;;
16037;SDS011;8123;50.906;6.172;2023-05-07T01:01:40;13.00;;;8.20;;
16037;SDS011;8123;50.906;6.172;2023-05-07T01:04:06;9.53;;;8.50;;
16037;SDS011;8123;50.906;6.172;2023-05-07T01:06:34;16.40;;;8.80;;
16037;SDS011;8123;50.906;6.172;2023-05-07T01:09:00;9.87;;;8.67;;
16037;SDS011;8123;50.906;6.172;2023-05-07T01:11:26;12.33;;;9.13;;
16037;SDS011;8123;50.906;6.172;2023-05-07T01:13:52;13.77;;;8.63;;
16037;SDS011;8123;50.906;6.172;2023-05-07T01:16:18;16.47;;;9.00;;
16037;SDS011;8123;50.906;6.172;2023-05-07T01:18:43;11.87;;;8.50;;
16037;SDS011;8123;50.906;6.172;2023-05-07T01:21:13;13.03;;;9.43;;
16037;SDS011;8123;50.906;6.172;2023-05-07T01:23:41;18.37;;;8.77;;
16037;SDS011;8123;50.906;6.172;2023-05-07T01:26:07;14.53;;;9.47;;
16037;SDS011;8123;50.906;6.172;2023-05-07T01:28:33;13.70;;;9.67;;
16037;SDS011;8123;50.906;6.172;2023-05-07T01:31:00;14.10;;;9.70;;
16037;SDS011;8123;50.906;6.172;2023-05-07T01:33:28;13.33;;;10.47;;
16037;SDS011;8123;50.906;6.172;2023-05-07T01:35:56;12.00;;;10.00;;
16037;SDS011;8123;50.906;6.172;2023-05-07T01:38:25;14.43;;;10.77;;
16037;SDS011;8123;50.906;6.172;2023-05-07T01:40:51;11.97;;;10.37;;
16037;SDS011;8123;50.906;6.172;2023-05-07T01:43:18;16.53;;;10.83;;
16037;SDS011;8123;50.906;6.172;2023-05-07T01:45:49;13.97;;;10.90;;
16037;SDS011;8123;50.906;6.172;2023-05-07T01:48:15;14.20;;;11.67;;
16037;SDS011;8123;50.906;6.172;2023-05-07T01:50:42;21.27;;;10.77;;
16037;SDS011;8123;50.906;6.172;2023-05-07T01:53:09;21.93;;;10.90;;
16037;SDS011;8123;50.906;6.172;2023-05-07T01:55:35;15.23;;;11.10;;
16037;SDS011;8123;50.906;6.172;2023-05-07T01:58:01;12.90;;;10.20;;
16037;SDS011;8123;50.906;6.172;2023-05-07T02:00:28;13.03;;;9.87;;
16037;SDS011;8123;50.906;6.172;2023-05-07T02:02:53;14.40;;;10.00;;
16037;SDS011;8123;50.906;6.172;2023-05-07T02:05:20;20.87;;;10.40;;
16037;SDS011;8123;50.906;6.172;2023-05-07T02:07:46;19.63;;;9.80;;
16037;SDS011;8123;50.906;6.172;2023-05-07T02:10:11;17.27;;;11.13;;
16037;SDS011;8123;50.906;6.172;2023-05-07T02:12:37;18.83;;;9.00;;
16037;SDS011;8123;50.906;6.172;2023-05-07T02:15:03;11.30;;;9.60;;
16037;SDS011;8123;50.906;6.172;2023-05-07T02:17:28;16.77;;;11.27;;
16037;SDS011;8123;50.906;6.172;2023-05-07T02:19:56;15.47;;;10.27;;
16037;SDS011;8123;50.906;6.172;2023-05-07T02:22:22;14.93;;;10.90;;
16037;SDS011;8123;50.906;6.172;2023-05-07T02:24:48;16.80;;;10.80;;
16037;SDS011;8123;50.906;6.172;2023-05-07T02:27:14;15.37;;;10.47;;
16037;SDS011;8123;50.906;6.172;2023-05-07T02:29:39;15.03;;;11.40;;
16037;SDS011;8123;50.906;6.172;2023-05-07T02:32:05;14.43;;;11.17;;
16037;SDS011;8123;50.906;6.172;2023-05-07T02:34:32;23.33;;;11.27;;
16037;SDS011;8123;50.906;6.172;2023-05-07T02:36:57;24.23;;;12.63;;
16037;SDS011;8123;50.906;6.172;2023-05-07T02:39:23;24.50;;;11.63;;
16037;SDS011;8123;50.906;6.172;2023-05-07T02:41:48;23.20;;;11.40;;
16037;SDS011;8123;50.906;6.172;2023-05-07T02:44:14;20.00;;;11.40;;
16037;SDS011;8123;50.906;6.172;2023-05-07T02:46:40;16.60;;;11.00;;
16037;SDS011;8123;50.906;6.172;2023-05-07T02:49:05;17.13;;;11.27;;
16037;SDS011;8123;50.906;6.172;2023-05-07T02:51:31;18.83;;;10.90;;
16037;SDS011;8123;50.906;6.172;2023-05-07T02:53:57;19.30;;;11.43;;
16037;SDS011;8123;50.906;6.172;2023-05-07T02:56:26;17.30;;;11.80;;
16037;SDS011;8123;50.906;6.172;2023-05-07T02:58:52;23.37;;;11.40;;
16037;SDS011;8123;50.906;6.172;2023-05-07T03:01:17;17.93;;;13.40;;
16037;SDS011;8123;50.906;6.172;2023-05-07T03:03:43;21.13;;;11.60;;
16037;SDS011;8123;50.906;6.172;2023-05-07T03:06:09;17.50;;;11.67;;
16037;SDS011;8123;50.906;6.172;2023-05-07T03:08:35;15.30;;;11.50;;
16037;SDS011;8123;50.906;6.172;2023-05-07T03:11:01;15.50;;;11.40;;
16037;SDS011;8123;50.906;6.172;2023-05-07T03:13:27;20.40;;;12.13;;
16037;SDS011;8123;50.906;6.172;2023-05-07T03:15:53;17.33;;;11.37;;
16037;SDS011;8123;50.906;6.172;2023-05-07T03:18:18;18.93;;;11.73;;
16037;SDS011;8123;50.906;6.172;2023-05-07T03:20:44;27.63;;;12.17;;
16037;SDS011;8123;50.906;6.172;2023-05-07T03:23:10;12.57;;;10.53;;
16037;SDS011;8123;50.906;6.172;2023-05-07T03:25:35;18.33;;;10.87;;
16037;SDS011;8123;50.906;6.172;2023-05-07T03:28:01;13.30;;;10.83;;
16037;SDS011;8123;50.906;6.172;2023-05-07T03:30:26;16.20;;;10.53;;
16037;SDS011;8123;50.906;6.172;2023-05-07T03:32:52;17.30;;;11.13;;
16037;SDS011;8123;50.906;6.172;2023-05-07T03:35:18;22.67;;;11.50;;
16037;SDS011;8123;50.906;6.172;2023-05-07T03:37:43;15.47;;;11.20;;
16037;SDS011;8123;50.906;6.172;2023-05-07T03:40:09;17.77;;;12.40;;
16037;SDS011;8123;50.906;6.172;2023-05-07T03:42:35;20.00;;;11.60;;
16037;SDS011;8123;50.906;6.172;2023-05-07T03:45:01;24.17;;;12.80;;
16037;SDS011;8123;50.906;6.172;2023-05-07T03:47:27;13.40;;;11.40;;
16037;SDS011;8123;50.906;6.172;2023-05-07T03:49:52;15.20;;;11.43;;
16037;SDS011;8123;50.906;6.172;2023-05-07T03:52:19;12.00;;;10.70;;
16037;SDS011;8123;50.906;6.172;2023-05-07T03:54:48;21.87;;;11.77;;
16037;SDS011;8123;50.906;6.172;2023-05-07T03:57:19;22.23;;;11.33;;
16037;SDS011;8123;50.906;6.172;2023-05-07T03:59:45;14.90;;;10.90;;
16037;SDS011;8123;50.906;6.172;2023-05-07T04:02:10;18.27;;;12.43;;
16037;SDS011;8123;50.906;6.172;2023-05-07T04:04:36;21.33;;;11.97;;
16037;SDS011;8123;50.906;6.172;2023-05-07T04:07:01;13.57;;;11.87;;
16037;SDS011;8123;50.906;6.172;2023-05-07T04:09:28;21.50;;;10.90;;
16037;SDS011;8123;50.906;6.172;2023-05-07T04:11:56;11.43;;;10.30;;
16037;SDS011;8123;50.906;6.172;2023-05-07T04:14:22;14.60;;;11.23;;
16037;SDS011;8123;50.906;6.172;2023-05-07T04:16:48;19.13;;;11.67;;
16037;SDS011;8123;50.906;6.172;2023-05-07T04:19:13;15.50;;;12.17;;
16037;SDS011;8123;50.906;6.172;2023-05-07T04:21:39;18.43;;;10.77;;
16037;SDS011;8123;50.906;6.172;2023-05-07T04:24:05;18.37;;;11.10;;
16037;SDS011;8123;50.906;6.172;2023-05-07T04:26:30;16.43;;;10.43;;
16037;SDS011;8123;50.906;6.172;2023-05-07T04:28:56;14.30;;;11.47;;
16037;SDS011;8123;50.906;6.172;2023-05-07T04:31:24;14.23;;;10.03;;
16037;SDS011;8123;50.906;6.172;2023-05-07T04:33:49;16.37;;;11.67;;
16037;SDS011;8123;50.906;6.172;2023-05-07T04:36:16;14.23;;;10.97;;
16037;SDS011;8123;50.906;6.172;2023-05-07T04:38:42;16.40;;;10.60;;
16037;SDS011;8123;50.906;6.172;2023-05-07T04:41:08;10.50;;;9.50;;
16037;SDS011;8123;50.906;6.172;2023-05-07T04:43:34;17.73;;;9.93;;
16037;SDS011;8123;50.906;6.172;2023-05-07T04:46:00;24.27;;;11.20;;
16037;SDS011;8123;50.906;6.172;2023-05-07T04:48:25;29.30;;;10.23;;
16037;SDS011;8123;50.906;6.172;2023-05-07T04:50:51;25.43;;;11.17;;
16037;SDS011;8123;50.906;6.172;2023-05-07T04:53:18;21.23;;;11.43;;
16037;SDS011;8123;50.906;6.172;2023-05-07T04:55:44;11.43;;;10.27;;
16037;SDS011;8123;50.906;6.172;2023-05-07T04:58:11;18.63;;;9.47;;
16037;SDS011;8123;50.906;6.172;2023-05-07T05:00:37;11.13;;;9.33;;
16037;SDS011;8123;50.906;6.172;2023-05-07T05:03:04;18.60;;;9.83;;
16037;SDS011;8123;50.906;6.172;2023-05-07T05:05:30;11.70;;;8.27;;
16037;SDS011;8123;50.906;6.172;2023-05-07T05:07:55;12.73;;;8.87;;
16037;SDS011;8123;50.906;6.172;2023-05-07T05:10:21;16.10;;;9.17;;
16037;SDS011;8123;50.906;6.172;2023-05-07T05:12:47;12.60;;;8.60;;
16037;SDS011;8123;50.906;6.172;2023-05-07T05:15:12;9.57;;;8.00;;
16037;SDS011;8123;50.906;6.172;2023-05-07T05:17:38;21.97;;;8.00;;
16037;SDS011;8123;50.906;6.172;2023-05-07T05:20:04;7.63;;;6.83;;
16037;SDS011;8123;50.906;6.172;2023-05-07T05:22:31;8.90;;;7.30;;
16037;SDS011;8123;50.906;6.172;2023-05-07T05:24:57;7.60;;;6.80;;
16037;SDS011;8123;50.906;6.172;2023-05-07T05:27:22;14.63;;;7.07;;
16037;SDS011;8123;50.906;6.172;2023-05-07T05:29:48;23.53;;;7.30;;
16037;SDS011;8123;50.906;6.172;2023-05-07T05:32:15;8.87;;;6.90;;
16037;SDS011;8123;50.906;6.172;2023-05-07T05:34:40;9.73;;;7.20;;
16037;SDS011;8123;50.906;6.172;2023-05-07T05:37:06;7.90;;;6.87;;
16037;SDS011;8123;50.906;6.172;2023-05-07T05:39:32;8.17;;;6.37;;
16037;SDS011;8123;50.906;6.172;2023-05-07T05:41:57;13.63;;;7.40;;
16037;SDS011;8123;50.906;6.172;2023-05-07T05:44:23;9.23;;;6.90;;
16037;SDS011;8123;50.906;6.172;2023-05-07T05:46:48;9.10;;;6.57;;
16037;SDS011;8123;50.906;6.172;2023-05-07T05:49:14;7.87;;;6.90;;
16037;SDS011;8123;50.906;6.172;2023-05-07T05:51:40;12.10;;;7.80;;
16037;SDS011;8123;50.906;6.172;2023-05-07T05:54:07;6.70;;;6.10;;
16037;SDS011;8123;50.906;6.172;2023-05-07T05:56:33;6.73;;;6.00;;
16037;SDS011;8123;50.906;6.172;2023-05-07T05:58:58;7.97;;;6.40;;
16037;SDS011;8123;50.906;6.172;2023-05-07T06:01:24;7.60;;;6.90;;
16037;SDS011;8123;50.906;6.172;2023-05-07T06:03:50;10.70;;;7.97;;
16037;SDS011;8123;50.906;6.172;2023-05-07T06:08:47;6.97;;;6.37;;
16037;SDS011;8123;50.906;6.172;2023-05-07T06:11:12;8.27;;;7.33;;
16037;SDS011;8123;50.906;6.172;2023-05-07T06:13:40;10.17;;;6.60;;
16037;SDS011;8123;50.906;6.172;2023-05-07T06:16:06;9.83;;;6.67;;
16037;SDS011;8123;50.906;6.172;2023-05-07T06:18:32;10.07;;;6.50;;
16037;SDS011;8123;50.906;6.172;2023-05-07T06:20:57;6.80;;;6.10;;
16037;SDS011;8123;50.906;6.172;2023-05-07T06:23:23;8.47;;;5.90;;
16037;SDS011;8123;50.906;6.172;2023-05-07T06:25:49;8.87;;;6.23;;
16037;SDS011;8123;50.906;6.172;2023-05-07T06:28:15;6.80;;;6.13;;
16037;SDS011;8123;50.906;6.172;2023-05-07T06:30:41;7.03;;;6.40;;
16037;SDS011;8123;50.906;6.172;2023-05-07T06:33:07;7.53;;;6.37;;
16037;SDS011;8123;50.906;6.172;2023-05-07T06:35:33;8.73;;;6.13;;
16037;SDS011;8123;50.906;6.172;2023-05-07T06:37:59;8.90;;;6.30;;
16037;SDS011;8123;50.906;6.172;2023-05-07T06:40:25;8.17;;;6.30;;
16037;SDS011;8123;50.906;6.172;2023-05-07T06:42:51;6.93;;;6.30;;
16037;SDS011;8123;50.906;6.172;2023-05-07T06:45:16;11.77;;;6.30;;
16037;SDS011;8123;50.906;6.172;2023-05-07T06:47:42;8.60;;;6.20;;
16037;SDS011;8123;50.906;6.172;2023-05-07T06:50:08;6.70;;;5.97;;
16037;SDS011;8123;50.906;6.172;2023-05-07T06:52:34;6.57;;;5.57;;
16037;SDS011;8123;50.906;6.172;2023-05-07T06:55:00;8.10;;;6.00;;
16037;SDS011;8123;50.906;6.172;2023-05-07T06:57:26;11.97;;;6.30;;
16037;SDS011;8123;50.906;6.172;2023-05-07T06:59:51;10.20;;;7.00;;
16037;SDS011;8123;50.906;6.172;2023-05-07T07:02:17;6.27;;;5.73;;
16037;SDS011;8123;50.906;6.172;2023-05-07T07:04:47;6.60;;;6.00;;
16037;SDS011;8123;50.906;6.172;2023-05-07T07:07:12;6.40;;;5.43;;
16037;SDS011;8123;50.906;6.172;2023-05-07T07:09:38;5.50;;;5.00;;
16037;SDS011;8123;50.906;6.172;2023-05-07T07:12:06;21.83;;;8.03;;
16037;SDS011;8123;50.906;6.172;2023-05-07T07:14:31;7.37;;;6.30;;
16037;SDS011;8123;50.906;6.172;2023-05-07T07:16:57;7.80;;;5.83;;
16037;SDS011;8123;50.906;6.172;2023-05-07T07:19:22;12.73;;;6.43;;
16037;SDS011;8123;50.906;6.172;2023-05-07T07:21:48;6.63;;;6.00;;
16037;SDS011;8123;50.906;6.172;2023-05-07T07:24:14;8.90;;;6.00;;
16037;SDS011;8123;50.906;6.172;2023-05-07T07:26:46;8.80;;;5.80;;
16037;SDS011;8123;50.906;6.172;2023-05-07T07:29:12;6.40;;;5.70;;
16037;SDS011;8123;50.906;6.172;2023-05-07T07:31:38;8.00;;;6.23;;
16037;SDS011;8123;50.906;6.172;2023-05-07T07:34:04;6.63;;;6.03;;
16037;SDS011;8123;50.906;6.172;2023-05-07T07:36:29;8.10;;;5.77;;
16037;SDS011;8123;50.906;6.172;2023-05-07T07:38:55;13.23;;;6.60;;
16037;SDS011;8123;50.906;6.172;2023-05-07T07:41:21;8.17;;;6.40;;
16037;SDS011;8123;50.906;6.172;2023-05-07T07:43:49;7.30;;;6.60;;
16037;SDS011;8123;50.906;6.172;2023-05-07T07:46:15;14.33;;;7.13;;
16037;SDS011;8123;50.906;6.172;2023-05-07T07:48:41;10.30;;;6.70;;
16037;SDS011;8123;50.906;6.172;2023-05-07T07:51:06;9.57;;;6.87;;
16037;SDS011;8123;50.906;6.172;2023-05-07T07:53:32;7.10;;;6.30;;
16037;SDS011;8123;50.906;6.172;2023-05-07T07:55:58;9.63;;;6.70;;
16037;SDS011;8123;50.906;6.172;2023-05-07T07:58:25;6.70;;;6.10;;
16037;SDS011;8123;50.906;6.172;2023-05-07T08:00:51;9.07;;;5.60;;
16037;SDS011;8123;50.906;6.172;2023-05-07T08:03:16;7.93;;;5.37;;
16037;SDS011;8123;50.906;6.172;2023-05-07T08:05:42;9.90;;;5.60;;
16037;SDS011;8123;50.906;6.172;2023-05-07T08:08:08;8.97;;;6.03;;
16037;SDS011;8123;50.906;6.172;2023-05-07T08:10:34;5.20;;;4.80;;
16037;SDS011;8123;50.906;6.172;2023-05-07T08:13:03;5.07;;;4.60;;
16037;SDS011;8123;50.906;6.172;2023-05-07T08:15:29;9.77;;;6.00;;
16037;SDS011;8123;50.906;6.172;2023-05-07T08:17:55;8.00;;;5.53;;
16037;SDS011;8123;50.906;6.172;2023-05-07T08:20:22;8.87;;;5.40;;
16037;SDS011;8123;50.906;6.172;2023-05-07T08:22:48;10.97;;;5.30;;
16037;SDS011;8123;50.906;6.172;2023-05-07T08:25:14;10.17;;;5.10;;
16037;SDS011;8123;50.906;6.172;2023-05-07T08:27:39;10.00;;;6.47;;
16037;SDS011;8123;50.906;6.172;2023-05-07T08:30:05;8.87;;;6.10;;
16037;SDS011;8123;50.906;6.172;2023-05-07T08:32:31;8.57;;;6.50;;
16037;SDS011;8123;50.906;6.172;2023-05-07T08:34:57;7.60;;;5.83;;
16037;SDS011;8123;50.906;6.172;2023-05-07T08:37:23;11.30;;;5.80;;
16037;SDS011;8123;50.906;6.172;2023-05-07T08:39:49;9.40;;;5.47;;
16037;SDS011;8123;50.906;6.172;2023-05-07T08:42:16;5.70;;;5.30;;
16037;SDS011;8123;50.906;6.172;2023-05-07T08:44:42;5.13;;;4.63;;
16037;SDS011;8123;50.906;6.172;2023-05-07T08:47:13;7.10;;;4.57;;
16037;SDS011;8123;50.906;6.172;2023-05-07T08:49:39;5.43;;;4.93;;
16037;SDS011;8123;50.906;6.172;2023-05-07T08:52:05;5.10;;;4.60;;
16037;SDS011;8123;50.906;6.172;2023-05-07T08:54:31;5.10;;;4.60;;
16037;SDS011;8123;50.906;6.172;2023-05-07T08:56:57;7.90;;;4.90;;
16037;SDS011;8123;50.906;6.172;2023-05-07T08:59:22;6.87;;;4.67;;
16037;SDS011;8123;50.906;6.172;2023-05-07T09:01:48;7.00;;;5.20;;
16037;SDS011;8123;50.906;6.172;2023-05-07T09:04:14;7.93;;;5.10;;
16037;SDS011;8123;50.906;6.172;2023-05-07T09:06:40;4.23;;;3.83;;
16037;SDS011;8123;50.906;6.172;2023-05-07T09:09:07;5.00;;;3.90;;
16037;SDS011;8123;50.906;6.172;2023-05-07T09:11:33;4.87;;;3.87;;
16037;SDS011;8123;50.906;6.172;2023-05-07T09:13:58;10.17;;;4.77;;
16037;SDS011;8123;50.906;6.172;2023-05-07T09:16:26;10.10;;;4.90;;
16037;SDS011;8123;50.906;6.172;2023-05-07T09:18:54;6.80;;;4.57;;
16037;SDS011;8123;50.906;6.172;2023-05-07T09:21:22;6.87;;;6.17;;
16037;SDS011;8123;50.906;6.172;2023-05-07T09:23:49;18.57;;;6.23;;
16037;SDS011;8123;50.906;6.172;2023-05-07T09:26:16;12.97;;;6.20;;
16037;SDS011;8123;50.906;6.172;2023-05-07T09:28:42;11.80;;;6.03;;
16037;SDS011;8123;50.906;6.172;2023-05-07T09:31:08;9.23;;;4.80;;
16037;SDS011;8123;50.906;6.172;2023-05-07T09:33:35;6.93;;;5.40;;
16037;SDS011;8123;50.906;6.172;2023-05-07T09:36:04;11.23;;;4.63;;
16037;SDS011;8123;50.906;6.172;2023-05-07T09:38:34;9.67;;;4.80;;
16037;SDS011;8123;50.906;6.172;2023-05-07T09:41:05;12.13;;;4.60;;
16037;SDS011;8123;50.906;6.172;2023-05-07T09:43:32;10.23;;;5.40;;
16037;SDS011;8123;50.906;6.172;2023-05-07T09:48:39;5.57;;;4.03;;
16037;SDS011;8123;50.906;6.172;2023-05-07T09:51:48;9.40;;;4.83;;
16037;SDS011;8123;50.906;6.172;2023-05-07T09:54:06;5.47;;;2.63;;
16037;SDS011;8123;50.906;6.172;2023-05-07T09:56:32;3.10;;;1.90;;
16037;SDS011;8123;50.906;6.172;2023-05-07T09:58:59;3.80;;;3.07;;
16037;SDS011;8123;50.906;6.172;2023-05-07T10:01:25;3.97;;;3.10;;
16037;SDS011;8123;50.906;6.172;2023-05-07T10:03:52;5.80;;;4.30;;
16037;SDS011;8123;50.906;6.172;2023-05-07T10:06:19;9.07;;;4.03;;
16037;SDS011;8123;50.906;6.172;2023-05-07T10:08:45;7.40;;;4.33;;
16037;SDS011;8123;50.906;6.172;2023-05-07T10:11:13;7.83;;;3.63;;
16037;SDS011;8123;50.906;6.172;2023-05-07T10:13:41;5.47;;;4.83;;
16037;SDS011;8123;50.906;6.172;2023-05-07T10:16:07;4.70;;;4.10;;
16037;SDS011;8123;50.906;6.172;2023-05-07T10:18:33;6.03;;;4.50;;
16037;SDS011;8123;50.906;6.172;2023-05-07T10:21:11;5.17;;;3.80;;
16037;SDS011;8123;50.906;6.172;2023-05-07T10:23:41;5.37;;;3.63;;
16037;SDS011;8123;50.906;6.172;2023-05-07T10:26:11;3.90;;;3.60;;
16037;SDS011;8123;50.906;6.172;2023-05-07T10:28:41;8.57;;;5.27;;
16037;SDS011;8123;50.906;6.172;2023-05-07T10:33:53;10.43;;;6.80;;
16037;SDS011;8123;50.906;6.172;2023-05-07T10:36:21;9.13;;;7.00;;
16037;SDS011;8123;50.906;6.172;2023-05-07T10:38:48;9.07;;;5.93;;
16037;SDS011;8123;50.906;6.172;2023-05-07T10:41:15;6.60;;;4.90;;
16037;SDS011;8123;50.906;6.172;2023-05-07T10:43:43;16.70;;;5.07;;
16037;SDS011;8123;50.906;6.172;2023-05-07T10:46:16;4.73;;;4.30;;
16037;SDS011;8123;50.906;6.172;2023-05-07T10:51:28;5.83;;;4.23;;
16037;SDS011;8123;50.906;6.172;2023-05-07T10:56:38;7.90;;;5.50;;
16037;SDS011;8123;50.906;6.172;2023-05-07T11:01:50;4.43;;;4.00;;
16037;SDS011;8123;50.906;6.172;2023-05-07T11:04:20;6.47;;;5.27;;
16037;SDS011;8123;50.906;6.172;2023-05-07T11:15:15;12.73;;;6.83;;
16037;SDS011;8123;50.906;6.172;2023-05-07T11:17:58;6.40;;;5.83;;
16037;SDS011;8123;50.906;6.172;2023-05-07T11:26:03;6.80;;;5.60;;
16037;SDS011;8123;50.906;6.172;2023-05-07T11:28:30;6.57;;;5.07;;
16037;SDS011;8123;50.906;6.172;2023-05-07T11:31:01;5.53;;;4.90;;
16037;SDS011;8123;50.906;6.172;2023-05-07T11:33:28;5.23;;;4.73;;
16037;SDS011;8123;50.906;6.172;2023-05-07T11:35:55;9.60;;;5.27;;
16037;SDS011;8123;50.906;6.172;2023-05-07T11:38:21;5.50;;;4.33;;
16037;SDS011;8123;50.906;6.172;2023-05-07T11:40:48;5.50;;;4.97;;
16037;SDS011;8123;50.906;6.172;2023-05-07T11:43:18;9.50;;;4.53;;
16037;SDS011;8123;50.906;6.172;2023-05-07T11:45:47;3.83;;;3.20;;
16037;SDS011;8123;50.906;6.172;2023-05-07T11:48:13;3.90;;;3.50;;
16037;SDS011;8123;50.906;6.172;2023-05-07T11:53:43;3.83;;;3.00;;
16037;SDS011;8123;50.906;6.172;2023-05-07T11:56:10;8.27;;;4.50;;
16037;SDS011;8123;50.906;6.172;2023-05-07T11:58:37;4.13;;;3.60;;
16037;SDS011;8123;50.906;6.172;2023-05-07T12:01:07;6.23;;;4.10;;
16037;SDS011;8123;50.906;6.172;2023-05-07T12:03:34;5.70;;;4.37;;
16037;SDS011;8123;50.906;6.172;2023-05-07T12:06:02;4.63;;;4.10;;
16037;SDS011;8123;50.906;6.172;2023-05-07T12:08:30;4.90;;;4.50;;
16037;SDS011;8123;50.906;6.172;2023-05-07T12:10:55;7.23;;;4.47;;
16037;SDS011;8123;50.906;6.172;2023-05-07T12:13:22;5.90;;;4.40;;
16037;SDS011;8123;50.906;6.172;2023-05-07T12:15:52;5.90;;;4.50;;
16037;SDS011;8123;50.906;6.172;2023-05-07T12:18:18;7.30;;;4.30;;
16037;SDS011;8123;50.906;6.172;2023-05-07T12:20:45;4.53;;;3.50;;
16037;SDS011;8123;50.906;6.172;2023-05-07T12:23:11;5.97;;;3.73;;
16037;SDS011;8123;50.906;6.172;2023-05-07T12:25:38;6.47;;;4.43;;
16037;SDS011;8123;50.906;6.172;2023-05-07T12:28:05;13.57;;;5.20;;
16037;SDS011;8123;50.906;6.172;2023-05-07T12:30:36;9.40;;;6.60;;
16037;SDS011;8123;50.906;6.172;2023-05-07T12:33:02;9.90;;;7.07;;
16037;SDS011;8123;50.906;6.172;2023-05-07T12:35:28;9.20;;;6.90;;
16037;SDS011;8123;50.906;6.172;2023-05-07T12:38:04;14.10;;;7.23;;
16037;SDS011;8123;50.906;6.172;2023-05-07T12:40:40;17.90;;;7.80;;
16037;SDS011;8123;50.906;6.172;2023-05-07T12:43:07;17.27;;;8.10;;
16037;SDS011;8123;50.906;6.172;2023-05-07T12:45:41;11.40;;;9.03;;
16037;SDS011;8123;50.906;6.172;2023-05-07T12:48:07;11.13;;;8.23;;
16037;SDS011;8123;50.906;6.172;2023-05-07T12:50:35;15.73;;;9.40;;
16037;SDS011;8123;50.906;6.172;2023-05-07T12:53:00;20.73;;;11.40;;
16037;SDS011;8123;50.906;6.172;2023-05-07T12:55:30;24.03;;;9.73;;
16037;SDS011;8123;50.906;6.172;2023-05-07T12:57:57;26.30;;;9.80;;
16037;SDS011;8123;50.906;6.172;2023-05-07T13:00:37;16.70;;;9.47;;
16037;SDS011;8123;50.906;6.172;2023-05-07T13:03:03;23.73;;;9.10;;
16037;SDS011;8123;50.906;6.172;2023-05-07T13:05:29;23.37;;;9.90;;
16037;SDS011;8123;50.906;6.172;2023-05-07T13:07:56;16.10;;;10.17;;
16037;SDS011;8123;50.906;6.172;2023-05-07T13:10:22;15.23;;;9.30;;
16037;SDS011;8123;50.906;6.172;2023-05-07T13:12:48;15.87;;;9.70;;
16037;SDS011;8123;50.906;6.172;2023-05-07T13:15:14;15.80;;;9.60;;
16037;SDS011;8123;50.906;6.172;2023-05-07T13:17:40;23.73;;;10.47;;
16037;SDS011;8123;50.906;6.172;2023-05-07T13:20:06;15.00;;;9.43;;
16037;SDS011;8123;50.906;6.172;2023-05-07T13:22:34;13.03;;;9.50;;
16037;SDS011;8123;50.906;6.172;2023-05-07T13:24:59;13.03;;;11.17;;
16037;SDS011;8123;50.906;6.172;2023-05-07T13:27:25;16.30;;;11.03;;
16037;SDS011;8123;50.906;6.172;2023-05-07T13:29:51;17.40;;;10.87;;
16037;SDS011;8123;50.906;6.172;2023-05-07T13:32:18;18.70;;;10.83;;
16037;SDS011;8123;50.906;6.172;2023-05-07T13:34:43;16.60;;;10.47;;
16037;SDS011;8123;50.906;6.172;2023-05-07T13:37:09;15.63;;;10.30;;
16037;SDS011;8123;50.906;6.172;2023-05-07T13:39:36;10.27;;;9.17;;
16037;SDS011;8123;50.906;6.172;2023-05-07T13:42:02;9.07;;;7.93;;
16037;SDS011;8123;50.906;6.172;2023-05-07T13:44:28;13.83;;;9.20;;
16037;SDS011;8123;50.906;6.172;2023-05-07T13:46:53;11.77;;;8.43;;
16037;SDS011;8123;50.906;6.172;2023-05-07T13:49:19;11.07;;;9.27;;
16037;SDS011;8123;50.906;6.172;2023-05-07T13:51:45;10.00;;;8.40;;
16037;SDS011;8123;50.906;6.172;2023-05-07T13:54:10;16.73;;;8.87;;
16037;SDS011;8123;50.906;6.172;2023-05-07T13:56:36;7.13;;;6.43;;
16037;SDS011;8123;50.906;6.172;2023-05-07T13:59:02;7.33;;;6.00;;
16037;SDS011;8123;50.906;6.172;2023-05-07T14:01:28;7.00;;;6.00;;
16037;SDS011;8123;50.906;6.172;2023-05-07T14:03:53;10.50;;;7.10;;
16037;SDS011;8123;50.906;6.172;2023-05-07T14:06:20;8.27;;;7.37;;
16037;SDS011;8123;50.906;6.172;2023-05-07T14:08:46;9.43;;;8.50;;
16037;SDS011;8123;50.906;6.172;2023-05-07T14:11:12;12.80;;;9.77;;
16037;SDS011;8123;50.906;6.172;2023-05-07T14:13:37;12.97;;;9.87;;
16037;SDS011;8123;50.906;6.172;2023-05-07T14:16:03;16.63;;;11.13;;
16037;SDS011;8123;50.906;6.172;2023-05-07T14:18:29;9.73;;;7.40;;
16037;SDS011;8123;50.906;6.172;2023-05-07T14:20:55;12.00;;;7.43;;
16037;SDS011;8123;50.906;6.172;2023-05-07T14:23:21;14.27;;;6.73;;
16037;SDS011;8123;50.906;6.172;2023-05-07T14:25:51;7.47;;;6.70;;
16037;SDS011;8123;50.906;6.172;2023-05-07T14:28:21;7.27;;;6.40;;
16037;SDS011;8123;50.906;6.172;2023-05-07T14:30:47;8.83;;;6.87;;
16037;SDS011;8123;50.906;6.172;2023-05-07T14:33:13;9.93;;;5.50;;
16037;SDS011;8123;50.906;6.172;2023-05-07T14:35:39;13.20;;;6.43;;
16037;SDS011;8123;50.906;6.172;2023-05-07T14:38:04;6.20;;;5.60;;
16037;SDS011;8123;50.906;6.172;2023-05-07T14:40:30;6.40;;;5.50;;
16037;SDS011;8123;50.906;6.172;2023-05-07T14:42:55;6.63;;;4.90;;
16037;SDS011;8123;50.906;6.172;2023-05-07T14:45:22;5.40;;;5.00;;
16037;SDS011;8123;50.906;6.172;2023-05-07T14:47:48;5.43;;;4.83;;
16037;SDS011;8123;50.906;6.172;2023-05-07T14:50:14;5.63;;;4.80;;
16037;SDS011;8123;50.906;6.172;2023-05-07T14:52:39;4.67;;;4.17;;
16037;SDS011;8123;50.906;6.172;2023-05-07T14:55:05;5.23;;;3.67;;
16037;SDS011;8123;50.906;6.172;2023-05-07T14:57:31;8.03;;;4.53;;
16037;SDS011;8123;50.906;6.172;2023-05-07T14:59:59;5.07;;;4.57;;
16037;SDS011;8123;50.906;6.172;2023-05-07T15:02:29;7.30;;;4.47;;
16037;SDS011;8123;50.906;6.172;2023-05-07T15:04:55;5.63;;;5.10;;
16037;SDS011;8123;50.906;6.172;2023-05-07T15:07:21;13.93;;;5.10;;
16037;SDS011;8123;50.906;6.172;2023-05-07T15:09:46;11.33;;;5.07;;
16037;SDS011;8123;50.906;6.172;2023-05-07T15:12:12;7.50;;;6.60;;
16037;SDS011;8123;50.906;6.172;2023-05-07T15:14:38;6.90;;;5.80;;
16037;SDS011;8123;50.906;6.172;2023-05-07T15:17:04;9.20;;;6.43;;
16037;SDS011;8123;50.906;6.172;2023-05-07T15:19:30;7.50;;;6.80;;